Thunder radar more information blitzortung!


Radar de pluja more information rain snow radar


Visita la nostra xarxa de llocs de meteo:

Template documentation
and downloads

And another site



No particular awareness of the weather is required.    There are no Weather-warnings

Pagina Historial Weather Underground text

Diari Resum Agost 2, 2017 Unitats:  Imperial    Mètric   Tant
« Previous Dia
SegĂźent Dia »
Diari Setmana Mensual Anual Personalitzada
  Maxima: Minima: Media:
Temperatura: 95 °F 70.7 °F 86 °F
Punt de rosada: 70 °F 59.7 °F 63.5 °F
Humitat: 84 % 37 % 48 %
Wind Speed: 16.1 mph 0 mph 4.2 mph
RĂ fegues de vent: 16.1 mph - -
Vent:- - SE
Pression baro: 30.1 in 29.9 in -
Precipitacions: 0 in    
Historical Graphs
 
 
Dades de taula per Agost 2, 2017
Temps Temperatura Punt de rosada Pression baro Vent Wind Speed RĂ fegues de vent Humitat Rainfall Rate (Hourly)
00:02 75.2 °F 70 °F 30 in SW 2.3 mph 2.3 mph 84 % 0 in
00:05 71.6 °F 66.2 °F 30 in WNW 1 mph 2 mph 83 % 0 in
00:07 75 °F 70 °F 30 in WSW 1.4 mph 1.4 mph 84 % 0 in
00:15 71.1 °F 64.2 °F 30 in NNW 1 mph 2 mph 79 % 0 in
00:25 71.6 °F 63.7 °F 30 in Calm   2 mph 76 % 0 in
00:35 71.4 °F 63.5 °F 30 in NE 1 mph 1 mph 76 % 0 in
00:45 71.1 °F 63.1 °F 30 in NE 3 mph 3 mph 76 % 0 in
00:55 70.9 °F 63.3 °F 30 in NNE 2 mph 4 mph 77 % 0 in
01:05 71.2 °F 63 °F 30 in NNE 2 mph 4 mph 75 % 0 in
01:15 70.9 °F 62.6 °F 30 in NNE 1 mph 1 mph 75 % 0 in
01:25 70.7 °F 62.1 °F 30 in NNE 2 mph 2 mph 74 % 0 in
01:35 70.7 °F 61.5 °F 30 in NNE 1 mph 4 mph 73 % 0 in
01:45 71.1 °F 61.5 °F 30 in NE 2 mph 4 mph 72 % 0 in
01:55 71.1 °F 61.2 °F 30 in NE 1 mph 3 mph 71 % 0 in
02:05 70.9 °F 61 °F 30 in NE 2 mph 3 mph 71 % 0 in
02:15 70.7 °F 60.8 °F 30 in ENE 1 mph 2 mph 71 % 0 in
02:25 70.9 °F 61 °F 30 in NE 1 mph 2 mph 71 % 0 in
02:35 71.1 °F 61.2 °F 30 in NNE 1 mph 3 mph 71 % 0 in
02:45 71.6 °F 61.7 °F 30 in North 1 mph 2 mph 71 % 0 in
02:55 71.6 °F 61.7 °F 30 in NNW 1 mph 2 mph 71 % 0 in
03:05 72.3 °F 62.4 °F 30 in Calm   2 mph 71 % 0 in
03:15 73.6 °F 63.1 °F 30 in NW 1 mph 2 mph 70 % 0 in
03:25 73.4 °F 63 °F 30 in SW 2 mph 2 mph 70 % 0 in
03:35 73.8 °F 63.3 °F 30 in WSW 2 mph 2 mph 70 % 0 in
03:45 74.5 °F 64 °F 30 in Calm   3 mph 70 % 0 in
03:55 76.1 °F 64.8 °F 30 in SSW 1 mph 2 mph 68 % 0 in
04:05 76.8 °F 65.5 °F 30 in SW 1 mph 2 mph 68 % 0 in
04:15 78.1 °F 65.5 °F 30 in SW 1 mph 2 mph 65 % 0 in
04:25 79 °F 65.3 °F 30.1 in Calm   2 mph 63 % 0 in
04:35 79.3 °F 65.1 °F 30 in East 1 mph 3 mph 62 % 0 in
04:45 80.1 °F 65.5 °F 30 in ESE 2 mph 3 mph 61 % 0 in
04:55 81.3 °F 66 °F 30.1 in East 2 mph 3 mph 60 % 0 in
05:05 82.2 °F 66 °F 30.1 in NE 2 mph 2 mph 58 % 0 in
05:15 84 °F 66.6 °F 30.1 in NNE 1 mph 2 mph 56 % 0 in
05:25 84.6 °F 66 °F 30.1 in NE 2 mph 4 mph 54 % 0 in
05:35 84.9 °F 65.3 °F 30 in NE 2 mph 5 mph 52 % 0 in
05:45 86.2 °F 65.8 °F 30 in ENE 3 mph 3 mph 51 % 0 in
10:47 86 °F 65.8 °F 30 in ESE 4.6 mph 4.6 mph 51 % 0 in
10:52 85.6 °F 64.9 °F 30 in East 5.4 mph 5.4 mph 50 % 0 in
10:57 85.8 °F 64.9 °F 30 in East 4.6 mph 4.6 mph 50 % 0 in
11:02 86 °F 65.1 °F 30 in East 5.8 mph 5.8 mph 50 % 0 in
11:07 86 °F 65.1 °F 30 in ENE 5.8 mph 5.8 mph 50 % 0 in
11:12 86 °F 65.1 °F 30 in NNE 6.9 mph 6.9 mph 50 % 0 in
11:17 87.3 °F 66.4 °F 30 in NE 3.5 mph 3.5 mph 50 % 0 in
11:22 87.4 °F 65.3 °F 30 in ESE 7.4 mph 7.4 mph 48 % 0 in
11:27 87.3 °F 65.1 °F 30 in ENE 8.1 mph 8.1 mph 48 % 0 in
11:32 88 °F 65.8 °F 30 in ENE 4 mph 4 mph 48 % 0 in
11:37 88.2 °F 65.5 °F 30 in NNE 5.9 mph 5.9 mph 47 % 0 in
11:42 88.3 °F 65.7 °F 30 in SSE 6.9 mph 6.9 mph 47 % 0 in
11:47 88.3 °F 64.9 °F 30 in SE 8.1 mph 8.1 mph 46 % 0 in
11:52 89.1 °F 65.7 °F 30 in ESE 5.9 mph 5.9 mph 46 % 0 in
12:01 90.5 °F 66.9 °F 30 in East 5.6 mph 5.6 mph 46 % 0 in
12:06 89.8 °F 66.2 °F 30 in East 5.8 mph 5.8 mph 46 % 0 in
12:11 90.7 °F 67.1 °F 30 in ESE 3.5 mph 3.5 mph 46 % 0 in
12:16 90.9 °F 66.6 °F 30 in ENE 3.5 mph 3.5 mph 45 % 0 in
12:21 90.9 °F 66.6 °F 30 in ENE 5.8 mph 5.8 mph 45 % 0 in
12:26 91.2 °F 66.9 °F 30 in ENE 3.5 mph 3.5 mph 45 % 0 in
12:31 91.6 °F 65.8 °F 30 in ENE 11.5 mph 11.5 mph 43 % 0 in
12:36 91.6 °F 65.8 °F 30 in ENE 4.6 mph 4.6 mph 43 % 0 in
12:41 91.6 °F 65.1 °F 30 in ENE 8.1 mph 8.1 mph 42 % 0 in
12:46 91.9 °F 65.7 °F 30 in ESE 5.8 mph 5.8 mph 42 % 0 in
12:51 93 °F 66.6 °F 30 in South 4.6 mph 4.6 mph 42 % 0 in
12:56 92.5 °F 64.6 °F 30 in ENE 8.1 mph 8.1 mph 40 % 0 in
13:01 92.7 °F 65.5 °F 30 in ESE 3.3 mph 3.3 mph 41 % 0 in
13:06 93.4 °F 65.5 °F 30 in ESE 5.8 mph 5.8 mph 40 % 0 in
13:11 93.4 °F 65.5 °F 30 in East 8.1 mph 8.1 mph 40 % 0 in
13:16 93.9 °F 65.8 °F 30 in North 6.2 mph 6.2 mph 40 % 0 in
13:21 93.7 °F 64.9 °F 30 in SE 5.8 mph 5.8 mph 39 % 0 in
13:26 94.3 °F 65.5 °F 30 in ESE 9.2 mph 9.2 mph 39 % 0 in
13:31 93.9 °F 65.8 °F 30 in ESE 9.2 mph 9.2 mph 40 % 0 in
13:36 93.9 °F 65.1 °F 30 in SE 8.1 mph 8.1 mph 39 % 0 in
13:41 94.3 °F 66.4 °F 30 in ESE 6.9 mph 6.9 mph 40 % 0 in
13:46 94.1 °F 65.5 °F 30 in ENE 8.1 mph 8.1 mph 39 % 0 in
13:51 93.4 °F 64 °F 30 in SE 9.2 mph 9.2 mph 38 % 0 in
13:56 92.7 °F 64 °F 30 in East 10.4 mph 10.4 mph 39 % 0 in
14:01 93.2 °F 64.6 °F 30 in East 9.2 mph 9.2 mph 39 % 0 in
14:06 93.9 °F 65.1 °F 30 in SW 3.5 mph 3.5 mph 39 % 0 in
14:11 93.7 °F 64.9 °F 30 in SSE 6.9 mph 6.9 mph 39 % 0 in
14:16 93 °F 64.4 °F 30 in East 11.5 mph 11.5 mph 39 % 0 in
14:21 93.6 °F 64.9 °F 30 in SE 5.8 mph 5.8 mph 39 % 0 in
14:26 92.5 °F 63.1 °F 30 in NNW 6.9 mph 6.9 mph 38 % 0 in
14:31 91.9 °F 63.3 °F 30 in ENE 10 mph 10 mph 39 % 0 in
14:36 91.6 °F 63.1 °F 30 in ESE 15 mph 15 mph 39 % 0 in
14:41 91.8 °F 63.3 °F 30 in ESE 10.9 mph 10.9 mph 39 % 0 in
14:46 91.8 °F 63.3 °F 30 in SE 5.8 mph 5.8 mph 39 % 0 in
14:51 91.6 °F 63.1 °F 30 in ESE 8.7 mph 8.7 mph 39 % 0 in
14:56 91.2 °F 63.5 °F 30 in East 9.2 mph 9.2 mph 40 % 0 in
15:01 91.2 °F 64.2 °F 30 in East 9.2 mph 9.2 mph 41 % 0 in
15:06 90.9 °F 63.9 °F 30 in ESE 9.2 mph 9.2 mph 41 % 0 in
15:11 91 °F 64 °F 30 in East 8.1 mph 8.1 mph 41 % 0 in
15:16 90.9 °F 64.6 °F 30 in NNE 16.1 mph 16.1 mph 42 % 0 in
15:21 90 °F 63.9 °F 30 in ESE 8.1 mph 8.1 mph 42 % 0 in
15:26 90.1 °F 64 °F 30 in ESE 5.8 mph 5.8 mph 42 % 0 in
15:31 90.1 °F 64 °F 30 in East 6.9 mph 7.4 mph 42 % 0 in
15:36 90.3 °F 64.8 °F 30 in ESE 5.8 mph 5.8 mph 43 % 0 in
15:41 90.7 °F 65.1 °F 30 in ESE 10.4 mph 10.4 mph 43 % 0 in
15:46 91.8 °F 65.5 °F 30 in ESE 9.4 mph 9.4 mph 42 % 0 in
15:51 92.1 °F 65.7 °F 30 in ESE 8.5 mph 8.5 mph 42 % 0 in
15:56 92.5 °F 65.5 °F 30 in SE 9.2 mph 9.2 mph 41 % 0 in
16:01 93 °F 65.8 °F 30 in ESE 7.1 mph 7.1 mph 41 % 0 in
16:06 93.7 °F 66.6 °F 30 in ESE 10.2 mph 10.2 mph 41 % 0 in
16:11 93 °F 66.6 °F 30 in NE 9.2 mph 9.2 mph 42 % 0 in
16:16 92.3 °F 66.6 °F 30 in ENE 8.1 mph 8.1 mph 43 % 0 in
16:21 91.8 °F 66 °F 30 in East 9.2 mph 9.2 mph 43 % 0 in
16:26 91.8 °F 66.7 °F 30 in East 11.5 mph 11.5 mph 44 % 0 in
16:31 91.2 °F 66.9 °F 30 in ESE 10.4 mph 10.4 mph 45 % 0 in
16:36 91.4 °F 67.1 °F 30 in ESE 10.4 mph 10.4 mph 45 % 0 in
16:41 90.5 °F 67.5 °F 30 in ESE 6.9 mph 6.9 mph 47 % 0 in
16:46 90.3 °F 67.5 °F 30 in SE 9 mph 9 mph 47 % 0 in
16:51 89.6 °F 67.3 °F 30 in ENE 8.1 mph 8.1 mph 48 % 0 in
16:56 88.9 °F 67.3 °F 30 in ENE 10.4 mph 10.4 mph 49 % 0 in
17:01 89.4 °F 68.4 °F 30 in SE 6 mph 6 mph 50 % 0 in
17:06 89.4 °F 68.4 °F 30 in East 6.9 mph 6.9 mph 50 % 0 in
17:11 89.8 °F 68.7 °F 30 in ENE 5.8 mph 5.8 mph 50 % 0 in
17:16 90.5 °F 68.7 °F 30 in NE 4.6 mph 4.6 mph 49 % 0 in
17:21 90.9 °F 68.5 °F 30 in SE 4.6 mph 4.6 mph 48 % 0 in
17:26 91 °F 68 °F 30 in ESE 6.9 mph 6.9 mph 47 % 0 in
17:31 90.9 °F 67.8 °F 30 in East 4.6 mph 4.6 mph 47 % 0 in
17:36 91.4 °F 66.4 °F 30 in SSE 5.8 mph 5.8 mph 44 % 0 in
17:39 92.1 °F 67.6 °F 30 in ESE 5.9 mph 5.9 mph 45 % 0 in
17:44 92.3 °F 67.3 °F 30 in West 3.5 mph 3.5 mph 44 % 0 in
17:49 94.1 °F 67.5 °F 30 in WSW 7.1 mph 7.1 mph 42 % 0 in
17:54 93.7 °F 66.6 °F 30 in WSW 11.5 mph 11.5 mph 41 % 0 in
17:59 94.3 °F 66.4 °F 30 in SW 6.9 mph 6.9 mph 40 % 0 in
18:04 95 °F 66.2 °F 30 in WSW 5.8 mph 5.8 mph 39 % 0 in
18:09 95 °F 65.5 °F 30 in SW 9.2 mph 9.2 mph 38 % 0 in
18:14 95 °F 64.6 °F 30 in SW 8.1 mph 8.1 mph 37 % 0 in
18:19 93.7 °F 63.5 °F 30 in SW 11.5 mph 11.5 mph 37 % 0 in
18:24 92.8 °F 62.8 °F 30 in SSW 14 mph 14 mph 37 % 0 in
18:29 92.8 °F 62.8 °F 30 in SW 12.7 mph 12.7 mph 37 % 0 in
18:34 93 °F 63 °F 30 in South 8.1 mph 8.1 mph 37 % 0 in
18:39 93 °F 63.7 °F 30 in SW 10.4 mph 10.4 mph 38 % 0 in
18:44 93.4 °F 64 °F 30 in SW 3.5 mph 3.5 mph 38 % 0 in
18:49 93.6 °F 64 °F 30 in SSW 5.8 mph 5.8 mph 38 % 0 in
18:54 93.2 °F 63.9 °F 30 in SSE 3.5 mph 3.5 mph 38 % 0 in
18:59 93.2 °F 63.9 °F 30 in SSW 5.8 mph 5.8 mph 38 % 0 in
19:04 92.3 °F 63.9 °F 30 in WNW 5.8 mph 5.8 mph 39 % 0 in
19:09 91.6 °F 63.1 °F 30 in SW 3.6 mph 3.6 mph 39 % 0 in
19:14 91.4 °F 63 °F 30 in SW 2.9 mph 2.9 mph 39 % 0 in
19:15 81.7 °F 60.6 °F 30 in Calm     49 % 0 in
19:19 91 °F 63.3 °F 30 in WSW 2.9 mph 2.9 mph 40 % 0 in
19:24 90.9 °F 63.1 °F 30 in NNE 1.2 mph   40 % 0 in
19:25 81.3 °F 60.3 °F 30 in SW 1 mph 2 mph 49 % 0 in
19:29 90.5 °F 63 °F 30 in NNE 2.3 mph 2.3 mph 40 % 0 in
19:34 90.1 °F 62.6 °F 29.9 in NNW 1.2 mph 1.2 mph 40 % 0 in
19:35 81.3 °F 60.3 °F 30 in Calm   1 mph 49 % 0 in
19:39 90.1 °F 62.6 °F 29.9 in SSE 3.5 mph 3.5 mph 40 % 0 in
19:44 90.1 °F 63.3 °F 29.9 in ENE 4.6 mph 4.6 mph 41 % 0 in
19:45 81.3 °F 60.3 °F 30 in Calm     49 % 0 in
19:49 90.1 °F 63.3 °F 29.9 in ENE 5.8 mph 5.8 mph 41 % 0 in
19:54 90.1 °F 63.3 °F 29.9 in ENE 6.4 mph 6.4 mph 41 % 0 in
19:55 81.5 °F 60.4 °F 30 in SW 1 mph 2 mph 49 % 0 in
19:59 90.1 °F 62.6 °F 29.9 in SE 4.6 mph 4.6 mph 40 % 0 in
20:04 90 °F 62.4 °F 29.9 in ENE 3.5 mph 3.5 mph 40 % 0 in
20:05 81 °F 60.6 °F 30 in WSW 2 mph 2 mph 50 % 0 in
20:09 90 °F 62.4 °F 29.9 in NNE 4.6 mph 4.6 mph 40 % 0 in
20:14 89.8 °F 61.5 °F 29.9 in ENE 4.6 mph 4.6 mph 39 % 0 in
20:15 81 °F 60.1 °F 30 in WSW 1 mph 2 mph 49 % 0 in
20:19 89.8 °F 61.5 °F 29.9 in East 2.3 mph 2.3 mph 39 % 0 in
20:24 89.8 °F 61.5 °F 29.9 in ESE 5.9 mph 5.9 mph 39 % 0 in
20:25 81.3 °F 60.3 °F 30 in Calm   2 mph 49 % 0 in
20:29 89.8 °F 61.5 °F 29.9 in ESE 6.2 mph 6.2 mph 39 % 0 in
20:34 89.6 °F 61.3 °F 29.9 in ESE 5.8 mph 5.8 mph 39 % 0 in
20:35 81 °F 60.6 °F 30 in WSW 1 mph 2 mph 50 % 0 in
20:39 89.4 °F 61.9 °F 29.9 in East 3.5 mph 3.5 mph 40 % 0 in
20:44 89.2 °F 61.9 °F 29.9 in South 3.5 mph 3.5 mph 40 % 0 in
20:45 79.9 °F 60.1 °F 30 in WSW 1 mph 2 mph 51 % 0 in
20:49 89.1 °F 61.5 °F 29.9 in East 4.6 mph 4.6 mph 40 % 0 in
20:54 88.9 °F 61.3 °F 29.9 in ESE 3.5 mph 3.5 mph 40 % 0 in
20:55 79.7 °F 60.1 °F 30 in WSW 2 mph 2 mph 51 % 0 in
20:59 88.7 °F 62.1 °F 29.9 in South 2.3 mph 2.3 mph 41 % 0 in
21:04 88.5 °F 61.9 °F 30 in SW 2.3 mph 2.3 mph 41 % 0 in
21:05 79.3 °F 60.3 °F 30 in Calm   2 mph 52 % 0 in
21:09 88.3 °F 61.7 °F 30 in SSE 4.6 mph 4.6 mph 41 % 0 in
21:14 88.2 °F 61.5 °F 30 in ENE 1.6 mph 1.6 mph 41 % 0 in
21:15 79.7 °F 60.4 °F 30 in WSW 1 mph 2 mph 52 % 0 in
21:19 88 °F 61.3 °F 30 in ENE 2.3 mph 2.3 mph 41 % 0 in
21:24 87.8 °F 61.2 °F 30 in ENE 1.4 mph   41 % 0 in
21:25 79.2 °F 60.1 °F 30 in SW 1 mph 3 mph 52 % 0 in
21:29 87.4 °F 61.5 °F 30 in East 1.4 mph 1.4 mph 42 % 0 in
21:34 87.3 °F 61.3 °F 30 in ENE 2.3 mph 2.3 mph 42 % 0 in
21:35 80.1 °F 60.8 °F 30 in WSW 1 mph 2 mph 52 % 0 in
21:39 87.1 °F 61.9 °F 30 in Calm     43 % 0 in
21:44 86.9 °F 61.7 °F 30 in Calm     43 % 0 in
21:45 79.9 °F 60.6 °F 30 in WSW 1 mph 2 mph 52 % 0 in
21:49 86.7 °F 61.5 °F 30 in Calm     43 % 0 in
21:54 86.5 °F 61.3 °F 30 in Calm     43 % 0 in
21:55 79.9 °F 60.6 °F 30 in Calm   2 mph 52 % 0 in
21:59 86.5 °F 61.3 °F 30 in SE 1.2 mph 1.2 mph 43 % 0 in
22:04 86.4 °F 61.2 °F 30 in ENE 1.2 mph   43 % 0 in
22:05 79.5 °F 60.4 °F 30 in SW 2 mph 3 mph 52 % 0 in
22:06 86.2 °F 61.2 °F 30 in ENE 1.2 mph   43 % 0 in
22:11 86 °F 61 °F 30 in Calm     43 % 0 in
22:15 79.2 °F 60.6 °F 30 in Calm   2 mph 53 % 0 in
22:16 86 °F 61 °F 30 in Calm     43 % 0 in
22:21 85.8 °F 61.3 °F 30 in Calm     44 % 0 in
22:25 78.8 °F 60.3 °F 30 in WSW 1 mph 2 mph 53 % 0 in
22:26 85.6 °F 61.2 °F 30 in NW 1.6 mph 1.6 mph 44 % 0 in
22:31 85.5 °F 61.2 °F 30 in NW 0.9 mph   44 % 0 in
22:35 78.6 °F 60.1 °F 30 in Calm   2 mph 53 % 0 in
22:36 85.1 °F 60.6 °F 30 in Calm     44 % 0 in
22:41 84.9 °F 60.6 °F 30 in NW 1.4 mph   44 % 0 in
22:45 78.8 °F 60.6 °F 30 in Calm     54 % 0 in
22:46 84.7 °F 60.4 °F 30 in Calm     44 % 0 in
22:51 84.7 °F 60.4 °F 30 in WNW 1.6 mph   44 % 0 in
22:55 78.8 °F 60.3 °F 30 in Calm   1 mph 53 % 0 in
22:56 84.6 °F 60.3 °F 30 in West 2.3 mph 2.3 mph 44 % 0 in
23:01 84.6 °F 61 °F 30 in Calm     45 % 0 in
23:05 78.4 °F 60.4 °F 30 in NNW 1 mph 2 mph 54 % 0 in
23:06 84.2 °F 60.6 °F 30 in West 1.2 mph   45 % 0 in
23:11 84.2 °F 60.6 °F 30 in NW 1.2 mph   45 % 0 in
23:15 78.1 °F 60.1 °F 30 in North 1 mph 2 mph 54 % 0 in
23:16 84 °F 61 °F 30 in NNW 1.2 mph   46 % 0 in
23:21 83.7 °F 60.6 °F 30 in ENE 1.2 mph 1.2 mph 46 % 0 in
23:25 77.9 °F 59.9 °F 30 in Calm   2 mph 54 % 0 in
23:26 83.3 °F 60.4 °F 30 in SW 1.4 mph 1.4 mph 46 % 0 in
23:31 82.8 °F 60.4 °F 30 in Calm     47 % 0 in
23:35 77.7 °F 59.7 °F 30 in Calm   1 mph 54 % 0 in
23:36 82.4 °F 60.1 °F 30 in Calm     47 % 0 in
23:41 82 °F 59.7 °F 30 in Calm     47 % 0 in
23:45 77.5 °F 60.1 °F 30 in Calm     55 % 0 in
23:46 81.9 °F 60.3 °F 30 in Calm     48 % 0 in
23:51 81.7 °F 60.1 °F 30 in Calm     48 % 0 in
23:55 77.2 °F 59.7 °F 30 in NNE 1 mph 1 mph 55 % 0 in
23:56 81.7 °F 60.1 °F 30 in Calm     48 % 0 in
Meteo Sesrovires
Elogis d' Weather Underground - 3.75 mb

Guio original per  Jim McMurry - jmcmurry@mwt.net Adaptat per a la plantilla per  Wim van der Kuil - Leuven-Template.eu

Trobareu la nostra informacio del temps tambe a:

Weather Underground

AWEKAS